createdAt,value
2018-12-18T00:00:21.668Z,4.20
2018-12-18T00:01:21.555Z,4.16
2018-12-18T00:02:21.455Z,4.23
2018-12-18T00:03:21.345Z,4.23
2018-12-18T00:04:21.236Z,4.28
2018-12-18T00:05:21.132Z,4.26
2018-12-18T00:06:21.022Z,4.20
2018-12-18T00:07:20.915Z,4.19
2018-12-18T00:08:20.809Z,4.34
2018-12-18T00:09:20.703Z,4.40
2018-12-18T00:10:20.599Z,4.40
2018-12-18T00:11:20.489Z,4.38
2018-12-18T00:12:20.386Z,4.35
2018-12-18T00:13:20.275Z,4.38
2018-12-18T00:14:20.168Z,4.38
2018-12-18T00:15:20.063Z,4.41
2018-12-18T00:16:19.954Z,4.49
2018-12-18T00:17:19.902Z,4.52
2018-12-18T00:18:19.743Z,4.53
2018-12-18T00:19:19.635Z,4.55
2018-12-18T00:20:19.528Z,4.50
2018-12-18T00:21:19.421Z,4.56
2018-12-18T00:22:19.317Z,4.55
2018-12-18T00:23:19.217Z,4.53
2018-12-18T00:24:19.107Z,4.49
2018-12-18T00:25:19.007Z,4.48
2018-12-18T00:26:18.907Z,4.52
2018-12-18T00:27:18.782Z,4.55
2018-12-18T00:28:18.689Z,4.49
2018-12-18T00:29:18.571Z,4.56
2018-12-18T00:30:18.471Z,4.48
2018-12-18T00:31:18.360Z,4.41
2018-12-18T00:32:18.250Z,4.48
2018-12-18T00:33:18.148Z,4.41
2018-12-18T00:34:18.036Z,4.41
2018-12-18T00:35:17.953Z,4.42
2018-12-18T00:36:17.825Z,4.52
2018-12-18T00:37:17.726Z,4.52
2018-12-18T00:38:17.614Z,4.52
2018-12-18T00:39:17.508Z,4.52
2018-12-18T00:40:17.397Z,4.58
2018-12-18T00:41:17.292Z,4.55
2018-12-18T00:42:17.192Z,4.53
2018-12-18T00:43:17.083Z,4.59
2018-12-18T00:44:16.979Z,4.63
2018-12-18T00:45:16.871Z,4.52
2018-12-18T00:46:16.768Z,4.60
2018-12-18T00:47:16.659Z,4.59
2018-12-18T00:48:16.558Z,4.50
2018-12-18T00:49:16.440Z,4.55
2018-12-18T00:50:16.335Z,4.66
2018-12-18T00:51:16.233Z,4.55
2018-12-18T00:52:16.120Z,4.53
2018-12-18T00:53:16.024Z,4.60
2018-12-18T00:54:15.908Z,4.60
2018-12-18T00:55:15.810Z,4.55
2018-12-18T00:56:15.699Z,4.49
2018-12-18T00:57:15.589Z,4.52
2018-12-18T00:58:15.483Z,4.59
2018-12-18T00:59:15.379Z,4.53
2018-12-18T01:00:15.281Z,4.49
2018-12-18T01:01:15.165Z,4.59
2018-12-18T01:02:15.056Z,4.70
2018-12-18T01:03:14.953Z,4.62
2018-12-18T01:04:14.843Z,4.60
2018-12-18T01:05:14.741Z,4.60
2018-12-18T01:06:14.632Z,4.62
2018-12-18T01:07:14.530Z,4.68
2018-12-18T01:08:14.419Z,4.66
2018-12-18T01:09:14.322Z,4.68
2018-12-18T01:10:14.207Z,4.73
2018-12-18T01:11:14.108Z,4.73
2018-12-18T01:12:13.996Z,4.75
2018-12-18T01:13:13.896Z,4.73
2018-12-18T01:14:13.780Z,4.59
2018-12-18T01:15:13.674Z,4.75
2018-12-18T01:16:13.571Z,4.71
2018-12-18T01:17:13.461Z,4.75
2018-12-18T01:18:13.355Z,4.71
2018-12-18T01:19:13.248Z,4.71
2018-12-18T01:20:13.150Z,4.71
2018-12-18T01:21:13.036Z,4.73
2018-12-18T01:22:12.940Z,4.73
2018-12-18T01:23:12.827Z,4.70
2018-12-18T01:24:12.741Z,4.60
2018-12-18T01:25:12.619Z,4.63
2018-12-18T01:26:12.505Z,4.67
2018-12-18T01:27:12.408Z,4.63
2018-12-18T01:28:12.294Z,4.58
2018-12-18T01:29:12.194Z,4.60
2018-12-18T01:30:12.083Z,4.59
2018-12-18T01:31:11.981Z,4.59
2018-12-18T01:32:11.871Z,4.70
2018-12-18T01:33:11.771Z,4.74
2018-12-18T01:34:11.658Z,4.77
2018-12-18T01:35:11.560Z,4.71
2018-12-18T01:36:11.448Z,4.71
2018-12-18T01:37:11.336Z,4.73
2018-12-18T01:38:11.230Z,4.70
2018-12-18T01:39:11.123Z,4.80
2018-12-18T01:40:11.017Z,4.71
2018-12-18T01:41:10.911Z,4.82
2018-12-18T01:42:10.805Z,4.87
2018-12-18T01:43:10.700Z,4.93
2018-12-18T01:44:10.592Z,4.86
2018-12-18T01:45:10.489Z,4.82
2018-12-18T01:46:10.380Z,4.80
2018-12-18T01:47:10.274Z,4.97
2018-12-18T01:48:10.168Z,4.86
2018-12-18T01:49:10.067Z,4.89
2018-12-18T01:50:09.959Z,4.94
2018-12-18T01:51:09.850Z,4.94
2018-12-18T01:52:09.743Z,4.80
2018-12-18T01:53:09.645Z,4.86
2018-12-18T01:54:09.535Z,4.80
2018-12-18T01:55:09.435Z,4.93
2018-12-18T01:56:09.318Z,4.93
2018-12-18T01:57:09.222Z,4.90
2018-12-18T01:58:09.112Z,4.92
2018-12-18T01:59:09.015Z,4.97
2018-12-18T02:00:08.898Z,4.92
2018-12-18T02:01:08.799Z,4.93
2018-12-18T02:02:08.691Z,4.99
2018-12-18T02:03:08.876Z,4.90
2018-12-18T02:04:08.476Z,5.00
2018-12-18T02:05:08.366Z,4.99
2018-12-18T02:06:08.258Z,4.90
2018-12-18T02:07:08.152Z,5.04
2018-12-18T02:08:08.053Z,5.00
2018-12-18T02:09:07.940Z,4.96
2018-12-18T02:10:07.842Z,4.92
2018-12-18T02:11:07.730Z,5.02
2018-12-18T02:12:07.621Z,5.02
2018-12-18T02:13:07.515Z,5.04
2018-12-18T02:14:07.409Z,5.07
2018-12-18T02:15:07.311Z,4.97
2018-12-18T02:16:07.207Z,5.02
2018-12-18T02:17:07.096Z,5.00
2018-12-18T02:18:06.985Z,5.05
2018-12-18T02:19:06.879Z,5.02
2018-12-18T02:20:06.773Z,5.00
2018-12-18T02:21:06.673Z,5.02
2018-12-18T02:22:06.562Z,5.11
2018-12-18T02:23:06.461Z,4.97
2018-12-18T02:24:06.350Z,5.07
2018-12-18T02:25:06.252Z,5.02
2018-12-18T02:26:06.142Z,5.05
2018-12-18T02:27:06.040Z,5.02
2018-12-18T02:28:05.924Z,5.02
2018-12-18T02:29:05.819Z,4.99
2018-12-18T02:30:05.715Z,4.96
2018-12-18T02:31:05.608Z,4.97
2018-12-18T02:32:05.500Z,4.99
2018-12-18T02:33:05.401Z,5.04
2018-12-18T02:34:05.293Z,5.00
2018-12-18T02:35:05.195Z,5.05
2018-12-18T02:36:05.085Z,5.02
2018-12-18T02:37:04.973Z,5.14
2018-12-18T02:38:04.870Z,5.11
2018-12-18T02:39:04.759Z,5.18
2018-12-18T02:40:04.661Z,5.08
2018-12-18T02:41:04.553Z,5.02
2018-12-18T02:42:04.458Z,5.04
2018-12-18T02:43:04.338Z,5.08
2018-12-18T02:44:04.233Z,5.02
2018-12-18T02:45:04.127Z,4.97
2018-12-18T02:46:04.018Z,4.92
2018-12-18T02:47:03.911Z,5.02
2018-12-18T02:48:03.804Z,5.00
2018-12-18T02:49:03.701Z,5.00
2018-12-18T02:50:03.604Z,4.97
2018-12-18T02:51:03.492Z,4.92
2018-12-18T02:52:03.396Z,4.90
2018-12-18T02:53:03.278Z,4.90
2018-12-18T02:54:03.171Z,5.07
2018-12-18T02:55:03.063Z,4.87
2018-12-18T02:56:02.957Z,4.96
2018-12-18T02:57:02.856Z,4.82
2018-12-18T02:58:02.996Z,4.90
2018-12-18T02:59:02.639Z,4.92
2018-12-18T03:00:02.536Z,4.94
2018-12-18T03:01:02.435Z,4.93
2018-12-18T03:02:02.325Z,4.92
2018-12-18T03:03:02.223Z,5.04
2018-12-18T03:04:02.108Z,5.04
2018-12-18T03:05:02.004Z,4.90
2018-12-18T03:06:01.902Z,4.87
2018-12-18T03:07:01.804Z,4.97
2018-12-18T03:08:01.688Z,5.02
2018-12-18T03:09:01.587Z,4.97
2018-12-18T03:10:01.478Z,5.08
2018-12-18T03:11:01.385Z,5.05
2018-12-18T03:12:01.261Z,5.05
2018-12-18T03:13:01.155Z,5.12
2018-12-18T03:14:01.049Z,5.11
2018-12-18T03:15:00.942Z,5.02
2018-12-18T03:16:00.843Z,5.11
2018-12-18T03:17:00.732Z,5.05
2018-12-18T03:18:00.631Z,4.97
2018-12-18T03:19:00.518Z,4.99
2018-12-18T03:20:00.420Z,5.00
2018-12-18T03:21:00.308Z,5.12
2018-12-18T03:22:00.202Z,5.08
2018-12-18T03:23:00.096Z,5.15
2018-12-18T03:23:59.996Z,5.15
2018-12-18T03:24:59.885Z,5.11
2018-12-18T03:25:59.777Z,5.11
2018-12-18T03:26:59.673Z,5.08
2018-12-18T03:27:59.567Z,5.17
2018-12-18T03:28:59.457Z,5.07
2018-12-18T03:29:59.351Z,5.15
2018-12-18T03:30:59.252Z,5.08
2018-12-18T03:31:59.142Z,5.11
2018-12-18T03:32:59.034Z,5.18
2018-12-18T03:33:58.926Z,5.15
2018-12-18T03:34:58.828Z,5.14
2018-12-18T03:35:58.716Z,5.11
2018-12-18T03:36:58.608Z,5.17
2018-12-18T03:37:58.751Z,5.14
2018-12-18T03:38:58.395Z,5.15
2018-12-18T03:39:58.289Z,5.15
2018-12-18T03:40:58.185Z,5.15
2018-12-18T03:41:58.077Z,5.15
2018-12-18T03:42:57.971Z,5.14
2018-12-18T03:43:57.866Z,5.15
2018-12-18T03:44:57.758Z,5.18
2018-12-18T03:45:57.652Z,5.15
2018-12-18T03:46:57.546Z,5.10
2018-12-18T03:47:57.441Z,5.05
2018-12-18T03:48:57.335Z,5.18
2018-12-18T03:49:57.237Z,5.05
2018-12-18T03:50:57.126Z,5.02
2018-12-18T03:51:57.026Z,5.08
2018-12-18T03:52:56.912Z,5.04
2018-12-18T03:53:56.814Z,5.05
2018-12-18T03:54:56.702Z,5.07
2018-12-18T03:55:56.591Z,5.10
2018-12-18T03:56:56.490Z,5.18
2018-12-18T03:57:56.377Z,5.15
2018-12-18T03:58:56.272Z,5.18
2018-12-18T03:59:56.166Z,5.05
2018-12-18T04:00:56.058Z,5.08
2018-12-18T04:01:55.955Z,5.05
2018-12-18T04:02:55.857Z,4.96
2018-12-18T04:03:55.743Z,5.07
2018-12-18T04:04:55.645Z,4.99
2018-12-18T04:05:55.536Z,4.96
2018-12-18T04:06:55.421Z,5.00
2018-12-18T04:07:55.316Z,5.05
2018-12-18T04:08:55.208Z,5.00
2018-12-18T04:09:55.112Z,5.12
2018-12-18T04:10:54.998Z,4.97
2018-12-18T04:11:54.899Z,5.07
2018-12-18T04:12:54.790Z,4.96
2018-12-18T04:13:54.688Z,4.93
2018-12-18T04:14:54.576Z,5.15
2018-12-18T04:15:54.486Z,5.08
2018-12-18T04:16:54.365Z,5.14
2018-12-18T04:17:54.257Z,5.05
2018-12-18T04:18:54.153Z,5.08
2018-12-18T04:19:54.044Z,4.99
2018-12-18T04:20:53.944Z,4.96
2018-12-18T04:21:53.829Z,4.93
2018-12-18T04:22:53.729Z,4.96
2018-12-18T04:23:53.618Z,4.99
2018-12-18T04:24:53.519Z,5.02
2018-12-18T04:25:53.404Z,5.07
2018-12-18T04:26:53.297Z,4.99
2018-12-18T04:27:53.190Z,5.00
2018-12-18T04:28:53.086Z,4.93
2018-12-18T04:29:52.991Z,5.02
2018-12-18T04:30:52.877Z,5.05
2018-12-18T04:31:52.767Z,5.04
2018-12-18T04:32:52.660Z,5.08
2018-12-18T04:33:52.554Z,5.05
2018-12-18T04:34:52.448Z,4.93
2018-12-18T04:35:52.342Z,5.10
2018-12-18T04:36:52.237Z,5.08
2018-12-18T04:37:52.140Z,5.05
2018-12-18T04:38:52.028Z,5.00
2018-12-18T04:39:51.929Z,5.02
2018-12-18T04:40:51.816Z,4.93
2018-12-18T04:41:51.716Z,4.96
2018-12-18T04:42:51.611Z,4.94
2018-12-18T04:43:51.495Z,5.08
2018-12-18T04:44:51.395Z,4.96
2018-12-18T04:45:51.281Z,4.97
2018-12-18T04:46:51.175Z,4.97
2018-12-18T04:47:51.071Z,5.04
2018-12-18T04:48:50.973Z,5.07
2018-12-18T04:49:50.861Z,5.07
2018-12-18T04:50:50.753Z,5.00
2018-12-18T04:51:50.758Z,5.04
2018-12-18T04:52:50.548Z,5.02
2018-12-18T04:53:50.436Z,5.00
2018-12-18T04:54:50.340Z,5.05
2018-12-18T04:55:50.222Z,5.04
2018-12-18T04:56:50.112Z,5.08
2018-12-18T04:57:50.013Z,4.93
2018-12-18T04:58:49.902Z,5.04
2018-12-18T04:59:49.793Z,5.05
2018-12-18T05:00:49.690Z,4.99
2018-12-18T05:01:49.581Z,4.97
2018-12-18T05:02:49.726Z,4.97
2018-12-18T05:03:49.369Z,5.08
2018-12-18T05:04:50.447Z,5.05
2018-12-18T05:05:49.156Z,5.04
2018-12-18T05:06:49.055Z,5.05
2018-12-18T05:07:48.943Z,4.99
2018-12-18T05:08:48.845Z,5.04
2018-12-18T05:09:48.732Z,5.07
2018-12-18T05:10:48.632Z,4.94
2018-12-18T05:11:48.521Z,5.02
2018-12-18T05:12:48.412Z,5.04
2018-12-18T05:13:48.306Z,4.96
2018-12-18T05:14:48.200Z,5.05
2018-12-18T05:15:48.092Z,4.96
2018-12-18T05:16:47.987Z,4.93
2018-12-18T05:17:47.886Z,4.94
2018-12-18T05:18:47.777Z,4.99
2018-12-18T05:19:47.675Z,4.93
2018-12-18T05:20:47.563Z,4.89
2018-12-18T05:21:47.463Z,4.97
2018-12-18T05:22:47.356Z,5.00
2018-12-18T05:23:47.256Z,4.94
2018-12-18T05:24:47.140Z,4.93
2018-12-18T05:25:47.029Z,4.84
2018-12-18T05:26:46.974Z,4.90
2018-12-18T05:27:46.817Z,4.89
2018-12-18T05:28:46.711Z,4.89
2018-12-18T05:29:46.603Z,4.94
2018-12-18T05:30:46.498Z,4.90
2018-12-18T05:31:46.391Z,4.87
2018-12-18T05:32:46.295Z,4.92
2018-12-18T05:33:46.183Z,5.00
2018-12-18T05:34:46.071Z,5.00
2018-12-18T05:35:45.972Z,4.92
2018-12-18T05:36:45.860Z,4.94
2018-12-18T05:37:45.762Z,4.93
2018-12-18T05:38:45.651Z,5.08
2018-12-18T05:39:45.550Z,4.94
2018-12-18T05:40:45.438Z,4.93
2018-12-18T05:41:45.325Z,5.08
2018-12-18T05:42:45.226Z,5.02
2018-12-18T05:43:45.175Z,5.00
2018-12-18T05:44:45.008Z,4.99
2018-12-18T05:45:44.902Z,4.97
2018-12-18T05:46:44.793Z,4.99
2018-12-18T05:47:44.685Z,4.99
2018-12-18T05:48:44.579Z,5.02
2018-12-18T05:49:44.481Z,4.96
2018-12-18T05:50:44.369Z,5.04
2018-12-18T05:51:44.269Z,5.12
2018-12-18T05:52:44.157Z,4.97
2018-12-18T05:53:44.057Z,5.07
2018-12-18T05:54:43.946Z,4.99
2018-12-18T05:55:43.834Z,5.05
2018-12-18T05:56:43.727Z,4.96
2018-12-18T05:57:43.620Z,5.05
2018-12-18T05:58:43.527Z,5.11
2018-12-18T05:59:43.411Z,5.12
2018-12-18T06:00:43.311Z,5.08
2018-12-18T06:01:43.201Z,5.10
2018-12-18T06:02:43.089Z,5.07
2018-12-18T06:03:42.988Z,4.99
2018-12-18T06:04:42.877Z,5.11
2018-12-18T06:05:42.777Z,5.05
2018-12-18T06:06:42.664Z,5.04
2018-12-18T06:07:42.565Z,5.07
2018-12-18T06:08:42.455Z,5.04
2018-12-18T06:09:42.342Z,5.15
2018-12-18T06:10:42.242Z,5.08
2018-12-18T06:11:42.128Z,5.18
2018-12-18T06:12:42.033Z,5.11
2018-12-18T06:13:41.918Z,5.12
2018-12-18T06:14:41.820Z,5.17
2018-12-18T06:15:41.709Z,5.17
2018-12-18T06:16:41.596Z,5.23
2018-12-18T06:17:41.745Z,5.15
2018-12-18T06:18:41.406Z,5.14
2018-12-18T06:19:41.286Z,5.14
2018-12-18T06:20:41.170Z,5.14
2018-12-18T06:21:41.077Z,5.07
2018-12-18T06:22:40.961Z,5.14
2018-12-18T06:23:40.850Z,5.12
2018-12-18T06:24:40.758Z,5.12
2018-12-18T06:25:40.638Z,5.17
2018-12-18T06:26:40.539Z,5.15
2018-12-18T06:27:40.426Z,5.12
2018-12-18T06:28:40.327Z,5.11
2018-12-18T06:29:40.215Z,5.17
2018-12-18T06:30:40.116Z,5.12
2018-12-18T06:31:40.010Z,5.25
2018-12-18T06:32:39.896Z,5.26
2018-12-18T06:33:39.793Z,5.14
2018-12-18T06:34:39.694Z,5.25
2018-12-18T06:35:39.595Z,5.21
2018-12-18T06:36:39.498Z,5.28
2018-12-18T06:37:39.361Z,5.28
2018-12-18T06:38:39.257Z,5.28
2018-12-18T06:39:39.149Z,5.10
2018-12-18T06:40:39.041Z,5.26
2018-12-18T06:41:38.933Z,5.21
2018-12-18T06:42:38.835Z,5.29
2018-12-18T06:43:38.723Z,5.25
2018-12-18T06:44:38.624Z,5.17
2018-12-18T06:45:38.511Z,5.14
2018-12-18T06:46:38.415Z,5.18
2018-12-18T06:47:38.302Z,5.21
2018-12-18T06:48:38.188Z,5.15
2018-12-18T06:49:38.089Z,5.10
2018-12-18T06:50:37.976Z,5.20
2018-12-18T06:51:37.871Z,5.12
2018-12-18T06:52:37.767Z,5.17
2018-12-18T06:53:37.665Z,5.26
2018-12-18T06:54:37.554Z,5.18
2018-12-18T06:55:37.443Z,5.21
2018-12-18T06:56:37.343Z,5.25
2018-12-18T06:57:37.232Z,5.29
2018-12-18T06:58:37.131Z,5.17
2018-12-18T06:59:37.021Z,5.26
2018-12-18T07:00:36.919Z,5.21
2018-12-18T07:01:36.809Z,5.30
2018-12-18T07:02:36.713Z,5.23
2018-12-18T07:03:36.591Z,5.26
2018-12-18T07:04:36.485Z,5.28
2018-12-18T07:05:36.389Z,5.15
2018-12-18T07:06:36.274Z,5.21
2018-12-18T07:07:36.174Z,5.26
2018-12-18T07:08:36.062Z,5.23
2018-12-18T07:09:35.963Z,5.33
2018-12-18T07:10:35.851Z,5.21
2018-12-18T07:11:35.740Z,5.25
2018-12-18T07:12:35.634Z,5.26
2018-12-18T07:13:35.527Z,5.23
2018-12-18T07:14:35.427Z,5.25
2018-12-18T07:15:35.317Z,5.26
2018-12-18T07:16:35.220Z,5.30
2018-12-18T07:17:35.102Z,5.25
2018-12-18T07:18:35.001Z,5.28
2018-12-18T07:19:34.893Z,5.18
2018-12-18T07:20:34.782Z,5.26
2018-12-18T07:21:34.677Z,5.32
2018-12-18T07:22:34.570Z,5.26
2018-12-18T07:23:34.471Z,5.23
2018-12-18T07:24:34.358Z,5.25
2018-12-18T07:25:34.259Z,5.26
2018-12-18T07:26:34.147Z,5.32
2018-12-18T07:27:34.048Z,5.30
2018-12-18T07:28:33.935Z,5.33
2018-12-18T07:29:33.828Z,5.46
2018-12-18T07:30:33.719Z,5.32
2018-12-18T07:31:33.612Z,5.44
2018-12-18T07:32:33.513Z,5.36
2018-12-18T07:33:33.403Z,5.33
2018-12-18T07:34:33.467Z,5.38
2018-12-18T07:35:33.187Z,5.47
2018-12-18T07:36:33.090Z,5.51
2018-12-18T07:37:32.979Z,5.48
2018-12-18T07:38:32.942Z,5.46
2018-12-18T07:39:32.767Z,5.48
2018-12-18T07:40:32.656Z,5.47
2018-12-18T07:41:32.606Z,5.57
2018-12-18T07:42:32.444Z,5.62
2018-12-18T07:43:32.345Z,5.65
2018-12-18T07:44:32.294Z,5.59
2018-12-18T07:45:32.137Z,5.59
2018-12-18T07:46:32.021Z,5.61
2018-12-18T07:47:31.935Z,5.61
2018-12-18T07:48:31.811Z,5.62
2018-12-18T07:49:31.703Z,5.64
2018-12-18T07:50:31.598Z,5.57
2018-12-18T07:51:31.499Z,5.66
2018-12-18T07:52:31.390Z,5.62
2018-12-18T07:53:31.277Z,5.56
2018-12-18T07:54:31.176Z,5.66
2018-12-18T07:55:31.064Z,5.69
2018-12-18T07:56:30.964Z,5.57
2018-12-18T07:57:30.852Z,5.59
2018-12-18T07:58:30.753Z,5.62
2018-12-18T07:59:30.642Z,5.66
2018-12-18T08:00:30.533Z,5.61
2018-12-18T08:01:30.428Z,5.59
2018-12-18T08:02:30.330Z,5.53
2018-12-18T08:03:30.219Z,5.54
2018-12-18T08:04:30.119Z,5.56
2018-12-18T08:05:30.178Z,5.53
2018-12-18T08:06:29.907Z,5.59
2018-12-18T08:07:29.797Z,5.53
2018-12-18T08:08:29.685Z,5.53
2018-12-18T08:09:29.584Z,5.50
2018-12-18T08:10:29.474Z,5.59
2018-12-18T08:11:29.376Z,5.53
2018-12-18T08:12:29.262Z,5.64
2018-12-18T08:13:29.153Z,5.68
2018-12-18T08:14:29.047Z,5.64
2018-12-18T08:15:28.940Z,5.65
2018-12-18T08:16:28.843Z,5.61
2018-12-18T08:17:28.739Z,5.69
2018-12-18T08:18:28.627Z,5.72
2018-12-18T08:19:28.516Z,5.69
2018-12-18T08:20:28.410Z,5.68
2018-12-18T08:21:28.305Z,5.72
2018-12-18T08:22:28.206Z,5.69
2018-12-18T08:23:28.096Z,5.76
2018-12-18T08:24:27.993Z,5.79
2018-12-18T08:25:27.881Z,5.83
2018-12-18T08:26:27.782Z,5.82
2018-12-18T08:27:27.670Z,5.82
2018-12-18T08:28:27.569Z,5.83
2018-12-18T08:29:27.459Z,5.86
2018-12-18T08:30:27.418Z,5.86
2018-12-18T08:31:27.247Z,5.97
2018-12-18T08:32:27.147Z,5.91
2018-12-18T08:33:27.036Z,5.91
2018-12-18T08:34:26.937Z,5.99
2018-12-18T08:35:26.823Z,5.91
2018-12-18T08:36:26.737Z,5.93
2018-12-18T08:37:26.913Z,5.94
2018-12-18T08:38:26.514Z,5.89
2018-12-18T08:39:26.401Z,6.01
2018-12-18T08:40:26.301Z,5.98
2018-12-18T08:41:26.193Z,5.91
2018-12-18T08:42:26.092Z,5.89
2018-12-18T08:43:25.978Z,5.89
2018-12-18T08:44:25.879Z,5.99
2018-12-18T08:45:25.770Z,6.02
2018-12-18T08:46:25.668Z,6.11
2018-12-18T08:47:25.556Z,6.09
2018-12-18T08:48:25.468Z,6.04
2018-12-18T08:49:25.345Z,6.16
2018-12-18T08:50:25.245Z,6.12
2018-12-18T08:51:25.133Z,6.14
2018-12-18T08:52:25.033Z,6.17
2018-12-18T08:53:24.923Z,6.19
2018-12-18T08:54:24.814Z,6.17
2018-12-18T08:55:24.706Z,6.24
2018-12-18T08:56:24.601Z,6.19
2018-12-18T08:57:24.496Z,6.24
2018-12-18T08:58:24.392Z,6.24
2018-12-18T08:59:24.288Z,6.28
2018-12-18T09:00:24.179Z,6.30
2018-12-18T09:01:24.073Z,6.26
2018-12-18T09:02:23.969Z,6.31
2018-12-18T09:03:23.864Z,6.31
2018-12-18T09:04:23.765Z,6.26
2018-12-18T09:05:23.662Z,6.22
2018-12-18T09:06:23.554Z,6.38
2018-12-18T09:07:23.441Z,6.44
2018-12-18T09:08:23.343Z,6.39
2018-12-18T09:09:23.230Z,6.39
2018-12-18T09:10:23.124Z,6.38
2018-12-18T09:11:23.019Z,6.44
2018-12-18T09:12:22.915Z,6.49
2018-12-18T09:13:22.819Z,6.56
2018-12-18T09:14:22.708Z,6.56
2018-12-18T09:15:22.596Z,6.51
2018-12-18T09:16:22.497Z,6.54
2018-12-18T09:17:22.398Z,6.57
2018-12-18T09:18:22.287Z,6.62
2018-12-18T09:19:22.186Z,6.56
2018-12-18T09:20:22.073Z,6.62
2018-12-18T09:21:21.966Z,6.57
2018-12-18T09:22:21.861Z,6.66
2018-12-18T09:23:21.763Z,6.60
2018-12-18T09:24:21.652Z,6.54
2018-12-18T09:25:21.553Z,6.62
2018-12-18T09:26:21.443Z,6.66
2018-12-18T09:27:21.333Z,6.63
2018-12-18T09:28:21.229Z,6.54
2018-12-18T09:29:21.128Z,6.66
2018-12-18T09:30:21.032Z,6.70
2018-12-18T09:31:20.917Z,6.66
2018-12-18T09:32:20.819Z,6.78
2018-12-18T09:33:20.705Z,6.74
2018-12-18T09:34:20.606Z,6.66
2018-12-18T09:35:20.494Z,6.72
2018-12-18T09:36:20.388Z,6.64
2018-12-18T09:37:20.282Z,6.78
2018-12-18T09:38:20.183Z,6.75
2018-12-18T09:39:20.072Z,6.82
2018-12-18T09:40:19.974Z,6.85
2018-12-18T09:41:19.874Z,6.79
2018-12-18T09:42:19.762Z,6.99
2018-12-18T09:43:19.661Z,6.89
2018-12-18T09:44:19.550Z,7.00
2018-12-18T09:45:19.450Z,6.95
2018-12-18T09:46:19.338Z,6.97
2018-12-18T09:47:19.243Z,7.07
2018-12-18T09:48:19.127Z,7.13
2018-12-18T09:49:19.022Z,7.20
2018-12-18T09:50:18.917Z,7.20
2018-12-18T09:51:18.816Z,7.14
2018-12-18T09:52:18.707Z,7.13
2018-12-18T09:53:18.606Z,7.17
2018-12-18T09:54:18.497Z,7.17
2018-12-18T09:55:18.404Z,7.15
2018-12-18T09:56:18.297Z,7.10
2018-12-18T09:57:18.182Z,7.11
2018-12-18T09:58:18.084Z,7.15
2018-12-18T09:59:17.983Z,7.18
2018-12-18T10:00:17.871Z,7.13
2018-12-18T10:01:17.772Z,7.28
2018-12-18T10:02:17.659Z,7.24
2018-12-18T10:03:17.553Z,7.35
2018-12-18T10:04:17.452Z,7.32
2018-12-18T10:05:17.349Z,7.36
2018-12-18T10:06:17.249Z,7.39
2018-12-18T10:07:17.138Z,7.31
2018-12-18T10:08:17.038Z,7.28
2018-12-18T10:09:16.926Z,7.35
2018-12-18T10:10:16.826Z,7.36
2018-12-18T10:11:16.722Z,7.36
2018-12-18T10:12:16.615Z,7.38
2018-12-18T10:13:16.520Z,7.32
2018-12-18T10:14:16.404Z,7.39
2018-12-18T10:15:16.297Z,7.39
2018-12-18T10:16:16.193Z,7.40
2018-12-18T10:17:16.093Z,7.36
2018-12-18T10:18:15.995Z,7.36
2018-12-18T10:19:15.882Z,7.39
2018-12-18T10:20:15.782Z,7.36
2018-12-18T10:21:15.671Z,7.31
2018-12-18T10:22:15.571Z,7.38
2018-12-18T10:23:15.471Z,7.35
2018-12-18T10:24:16.560Z,7.33
2018-12-18T10:25:15.266Z,7.31
2018-12-18T10:26:15.150Z,7.32
2018-12-18T10:27:15.050Z,7.33
2018-12-18T10:28:14.949Z,7.18
2018-12-18T10:29:14.838Z,7.29
2018-12-18T10:30:14.740Z,7.20
2018-12-18T10:31:14.627Z,7.29
2018-12-18T10:32:14.527Z,7.21
2018-12-18T10:33:14.429Z,7.11
2018-12-18T10:34:14.311Z,7.24
2018-12-18T10:35:14.282Z,7.29
2018-12-18T10:36:14.102Z,7.35
2018-12-18T10:37:14.005Z,7.31
2018-12-18T10:38:13.896Z,7.35
2018-12-18T10:39:13.792Z,7.31
2018-12-18T10:40:13.694Z,7.31
2018-12-18T10:41:13.581Z,7.39
2018-12-18T10:42:13.482Z,7.50
2018-12-18T10:43:13.410Z,7.66
2018-12-18T10:44:13.326Z,7.61
2018-12-18T10:45:13.802Z,7.61
2018-12-18T10:46:13.062Z,7.63
2018-12-18T10:47:12.966Z,7.61
2018-12-18T10:48:12.848Z,7.70
2018-12-18T10:49:12.748Z,7.61
2018-12-18T10:50:12.650Z,7.66
2018-12-18T10:51:12.537Z,7.61
2018-12-18T10:52:12.439Z,7.67
2018-12-18T10:53:12.325Z,7.61
2018-12-18T10:54:12.226Z,7.57
2018-12-18T10:55:12.127Z,7.60
2018-12-18T10:56:12.016Z,7.66
2018-12-18T10:57:11.916Z,7.61
2018-12-18T10:58:11.804Z,7.76
2018-12-18T10:59:11.704Z,7.73
2018-12-18T11:00:11.604Z,7.66
2018-12-18T11:01:11.551Z,7.73
2018-12-18T11:02:11.386Z,7.75
2018-12-18T11:03:11.282Z,7.82
2018-12-18T11:04:11.177Z,7.77
2018-12-18T11:05:11.082Z,7.82
2018-12-18T11:06:10.972Z,7.85
2018-12-18T11:07:10.876Z,7.87
2018-12-18T11:08:10.761Z,7.85
2018-12-18T11:09:10.660Z,7.87
2018-12-18T11:10:10.560Z,7.97
2018-12-18T11:11:10.449Z,7.91
2018-12-18T11:12:10.349Z,7.98
2018-12-18T11:13:10.252Z,8.03
2018-12-18T11:14:10.136Z,8.00
2018-12-18T11:15:10.038Z,8.06
2018-12-18T11:16:09.927Z,8.06
2018-12-18T11:17:09.823Z,8.03
2018-12-18T11:18:09.720Z,8.12
2018-12-18T11:19:09.615Z,8.06
2018-12-18T11:20:09.516Z,8.06
2018-12-18T11:21:09.416Z,8.05
2018-12-18T11:22:09.306Z,8.09
2018-12-18T11:23:09.205Z,8.05
2018-12-18T11:24:09.096Z,8.06
2018-12-18T11:25:08.990Z,8.15
2018-12-18T11:26:08.895Z,8.15
2018-12-18T11:27:08.787Z,8.20
2018-12-18T11:28:08.688Z,8.24
2018-12-18T11:29:08.586Z,8.19
2018-12-18T11:30:08.472Z,8.23
2018-12-18T11:31:08.374Z,8.27
2018-12-18T11:32:09.497Z,8.31
2018-12-18T11:33:08.161Z,8.24
2018-12-18T11:34:08.062Z,8.16
2018-12-18T11:35:07.950Z,8.18
2018-12-18T11:36:07.854Z,8.28
2018-12-18T11:37:07.762Z,8.33
2018-12-18T11:38:07.652Z,8.33
2018-12-18T11:39:07.535Z,8.38
2018-12-18T11:40:07.432Z,8.46
2018-12-18T11:41:07.328Z,8.48
2018-12-18T11:42:07.230Z,8.49
2018-12-18T11:43:07.129Z,8.34
2018-12-18T11:44:07.019Z,8.37
2018-12-18T11:45:06.918Z,8.30
2018-12-18T11:46:06.811Z,8.26
2018-12-18T11:47:06.705Z,8.16
2018-12-18T11:48:06.602Z,8.19
2018-12-18T11:49:06.507Z,8.20
2018-12-18T11:50:06.397Z,8.15
2018-12-18T11:51:06.297Z,8.20
2018-12-18T11:52:06.198Z,8.18
2018-12-18T11:53:06.085Z,8.13
2018-12-18T11:54:05.985Z,8.05
2018-12-18T11:55:05.886Z,8.05
2018-12-18T11:56:05.774Z,8.09
2018-12-18T11:57:05.674Z,7.94
2018-12-18T11:58:05.575Z,7.91
2018-12-18T11:59:05.463Z,7.91
2018-12-18T12:00:05.364Z,7.83
2018-12-18T12:01:05.254Z,7.77
2018-12-18T12:02:05.155Z,7.82
2018-12-18T12:03:05.053Z,7.61
2018-12-18T12:04:04.941Z,7.61
2018-12-18T12:05:04.841Z,7.58
2018-12-18T12:06:04.733Z,7.48
2018-12-18T12:07:04.630Z,7.54
2018-12-18T12:08:04.531Z,7.38
2018-12-18T12:09:04.433Z,7.40
2018-12-18T12:10:04.322Z,7.20
2018-12-18T12:11:04.211Z,7.21
2018-12-18T12:12:04.107Z,7.24
2018-12-18T12:13:04.004Z,7.14
2018-12-18T12:14:03.910Z,7.00
2018-12-18T12:15:03.794Z,7.00
2018-12-18T12:16:03.698Z,6.87
2018-12-18T12:17:03.587Z,6.81
2018-12-18T12:18:03.486Z,6.88
2018-12-18T12:19:03.387Z,6.88
2018-12-18T12:20:03.278Z,6.82
2018-12-18T12:21:03.167Z,6.78
2018-12-18T12:22:03.063Z,6.70
2018-12-18T12:23:02.966Z,6.67
2018-12-18T12:24:02.853Z,6.69
2018-12-18T12:25:02.754Z,6.70
2018-12-18T12:26:02.653Z,6.59
2018-12-18T12:27:02.543Z,6.66
2018-12-18T12:28:02.443Z,6.51
2018-12-18T12:29:02.331Z,6.72
2018-12-18T12:30:02.237Z,6.72
2018-12-18T12:31:02.132Z,6.78
2018-12-18T12:32:02.019Z,6.79
2018-12-18T12:33:01.911Z,6.84
2018-12-18T12:34:01.806Z,6.93
2018-12-18T12:35:01.713Z,6.96
2018-12-18T12:36:01.598Z,7.14
2018-12-18T12:37:01.494Z,7.15
2018-12-18T12:38:01.398Z,7.21
2018-12-18T12:39:01.284Z,7.24
2018-12-18T12:40:01.186Z,7.38
2018-12-18T12:41:01.074Z,7.45
2018-12-18T12:42:00.975Z,7.54
2018-12-18T12:43:00.864Z,7.53
2018-12-18T12:44:00.763Z,7.56
2018-12-18T12:45:00.663Z,7.60
2018-12-18T12:46:00.553Z,7.61
2018-12-18T12:47:00.453Z,7.63
2018-12-18T12:48:00.415Z,7.63
2018-12-18T12:49:00.242Z,7.63
2018-12-18T12:50:00.142Z,7.63
2018-12-18T12:51:00.030Z,7.66
2018-12-18T12:51:59.932Z,7.73
2018-12-18T12:52:59.821Z,7.73
2018-12-18T12:53:59.715Z,7.91
2018-12-18T12:54:59.618Z,7.98
2018-12-18T12:55:59.505Z,8.09
2018-12-18T12:56:59.403Z,8.18
2018-12-18T12:57:59.298Z,8.30
2018-12-18T12:58:59.195Z,8.44
2018-12-18T12:59:59.089Z,8.34
2018-12-18T13:00:58.997Z,8.37
2018-12-18T13:01:58.886Z,8.37
2018-12-18T13:02:58.786Z,8.36
2018-12-18T13:03:58.673Z,8.28
2018-12-18T13:04:58.569Z,8.36
2018-12-18T13:05:58.466Z,8.28
2018-12-18T13:06:58.361Z,8.20
2018-12-18T13:07:58.263Z,8.18
2018-12-18T13:08:58.154Z,8.10
2018-12-18T13:09:58.051Z,8.01
2018-12-18T13:10:57.952Z,8.08
2018-12-18T13:11:57.852Z,8.05
2018-12-18T13:12:57.741Z,8.00
2018-12-18T13:13:57.634Z,7.95
2018-12-18T13:14:57.533Z,7.90
2018-12-18T13:15:57.432Z,7.91
2018-12-18T13:16:57.322Z,7.80